sensor_id;sensor_type;location;lat;lon;timestamp;P1;durP1;ratioP1;P2;durP2;ratioP2
44222;SDS011;29895;48.804;9.386;2023-04-02T00:00:32;0.85;;;0.35;;
44222;SDS011;29895;48.804;9.386;2023-04-02T00:03:00;1.00;;;0.30;;
44222;SDS011;29895;48.804;9.386;2023-04-02T00:08:04;0.68;;;0.30;;
44222;SDS011;29895;48.804;9.386;2023-04-02T00:10:49;0.95;;;0.60;;
44222;SDS011;29895;48.804;9.386;2023-04-02T00:13:33;1.58;;;0.30;;
44222;SDS011;29895;48.804;9.386;2023-04-02T00:16:11;0.63;;;0.30;;
44222;SDS011;29895;48.804;9.386;2023-04-02T00:18:49;0.65;;;0.20;;
44222;SDS011;29895;48.804;9.386;2023-04-02T00:21:20;0.82;;;0.35;;
44222;SDS011;29895;48.804;9.386;2023-04-02T00:23:48;2.13;;;0.40;;
44222;SDS011;29895;48.804;9.386;2023-04-02T00:26:36;0.82;;;0.20;;
44222;SDS011;29895;48.804;9.386;2023-04-02T00:29:03;0.68;;;0.30;;
44222;SDS011;29895;48.804;9.386;2023-04-02T00:31:30;0.93;;;0.32;;
44222;SDS011;29895;48.804;9.386;2023-04-02T00:33:57;0.93;;;0.25;;
44222;SDS011;29895;48.804;9.386;2023-04-02T00:36:25;0.65;;;0.20;;
44222;SDS011;29895;48.804;9.386;2023-04-02T00:38:55;1.00;;;0.20;;
44222;SDS011;29895;48.804;9.386;2023-04-02T00:41:23;0.30;;;0.22;;
44222;SDS011;29895;48.804;9.386;2023-04-02T00:43:54;1.60;;;0.20;;
44222;SDS011;29895;48.804;9.386;2023-04-02T00:46:22;0.93;;;0.30;;
44222;SDS011;29895;48.804;9.386;2023-04-02T00:49:01;0.35;;;0.25;;
44222;SDS011;29895;48.804;9.386;2023-04-02T00:53:59;0.77;;;0.40;;
44222;SDS011;29895;48.804;9.386;2023-04-02T00:56:31;0.38;;;0.20;;
44222;SDS011;29895;48.804;9.386;2023-04-02T00:59:03;0.50;;;0.22;;
44222;SDS011;29895;48.804;9.386;2023-04-02T01:01:34;0.85;;;0.30;;
44222;SDS011;29895;48.804;9.386;2023-04-02T01:04:01;0.50;;;0.30;;
44222;SDS011;29895;48.804;9.386;2023-04-02T01:06:31;1.20;;;0.40;;
44222;SDS011;29895;48.804;9.386;2023-04-02T01:09:08;1.38;;;0.22;;
44222;SDS011;29895;48.804;9.386;2023-04-02T01:11:55;0.57;;;0.28;;
44222;SDS011;29895;48.804;9.386;2023-04-02T01:23:03;0.95;;;0.20;;
44222;SDS011;29895;48.804;9.386;2023-04-02T01:25:45;3.03;;;0.20;;
44222;SDS011;29895;48.804;9.386;2023-04-02T01:28:41;0.70;;;0.40;;
44222;SDS011;29895;48.804;9.386;2023-04-02T01:31:24;0.40;;;0.20;;
44222;SDS011;29895;48.804;9.386;2023-04-02T01:33:51;0.77;;;0.30;;
44222;SDS011;29895;48.804;9.386;2023-04-02T01:45:00;1.40;;;0.20;;
44222;SDS011;29895;48.804;9.386;2023-04-02T01:47:31;0.10;;;0.10;;
44222;SDS011;29895;48.804;9.386;2023-04-02T01:50:00;1.55;;;0.28;;
44222;SDS011;29895;48.804;9.386;2023-04-02T01:52:41;1.27;;;0.30;;
44222;SDS011;29895;48.804;9.386;2023-04-02T01:55:09;0.55;;;0.10;;
44222;SDS011;29895;48.804;9.386;2023-04-02T01:57:42;1.80;;;0.30;;
44222;SDS011;29895;48.804;9.386;2023-04-02T02:00:14;0.90;;;0.30;;
44222;SDS011;29895;48.804;9.386;2023-04-02T02:02:41;0.50;;;0.20;;
44222;SDS011;29895;48.804;9.386;2023-04-02T02:05:20;1.77;;;0.30;;
44222;SDS011;29895;48.804;9.386;2023-04-02T02:07:47;2.05;;;0.30;;
44222;SDS011;29895;48.804;9.386;2023-04-02T02:10:15;0.40;;;0.10;;
44222;SDS011;29895;48.804;9.386;2023-04-02T02:12:52;0.95;;;0.10;;
44222;SDS011;29895;48.804;9.386;2023-04-02T02:15:20;1.08;;;0.28;;
44222;SDS011;29895;48.804;9.386;2023-04-02T02:17:48;0.55;;;0.20;;
44222;SDS011;29895;48.804;9.386;2023-04-02T02:20:14;0.98;;;0.38;;
44222;SDS011;29895;48.804;9.386;2023-04-02T02:22:44;2.20;;;0.30;;
44222;SDS011;29895;48.804;9.386;2023-04-02T02:32:51;0.75;;;0.22;;
44222;SDS011;29895;48.804;9.386;2023-04-02T02:35:34;2.28;;;0.25;;
44222;SDS011;29895;48.804;9.386;2023-04-02T02:38:41;0.68;;;0.47;;
44222;SDS011;29895;48.804;9.386;2023-04-02T02:46:38;3.35;;;0.20;;
44222;SDS011;29895;48.804;9.386;2023-04-02T02:49:11;0.35;;;0.20;;
44222;SDS011;29895;48.804;9.386;2023-04-02T02:51:47;0.80;;;0.25;;
44222;SDS011;29895;48.804;9.386;2023-04-02T02:54:19;0.28;;;0.10;;
44222;SDS011;29895;48.804;9.386;2023-04-02T02:56:47;1.95;;;0.32;;
44222;SDS011;29895;48.804;9.386;2023-04-02T02:59:19;1.88;;;0.30;;
44222;SDS011;29895;48.804;9.386;2023-04-02T03:01:49;0.25;;;0.20;;
44222;SDS011;29895;48.804;9.386;2023-04-02T03:04:22;1.38;;;0.10;;
44222;SDS011;29895;48.804;9.386;2023-04-02T03:06:52;0.55;;;0.20;;
44222;SDS011;29895;48.804;9.386;2023-04-02T03:17:50;0.95;;;0.20;;
44222;SDS011;29895;48.804;9.386;2023-04-02T03:20:37;0.85;;;0.30;;
44222;SDS011;29895;48.804;9.386;2023-04-02T03:23:23;1.98;;;0.30;;
44222;SDS011;29895;48.804;9.386;2023-04-02T03:28:42;0.40;;;0.20;;
44222;SDS011;29895;48.804;9.386;2023-04-02T03:33:49;2.35;;;0.40;;
44222;SDS011;29895;48.804;9.386;2023-04-02T03:36:27;1.88;;;0.50;;
44222;SDS011;29895;48.804;9.386;2023-04-02T03:47:15;0.98;;;0.30;;
44222;SDS011;29895;48.804;9.386;2023-04-02T03:49:59;0.50;;;0.30;;
44222;SDS011;29895;48.804;9.386;2023-04-02T03:52:32;0.50;;;0.30;;
44222;SDS011;29895;48.804;9.386;2023-04-02T03:55:00;0.45;;;0.28;;
44222;SDS011;29895;48.804;9.386;2023-04-02T03:57:37;0.40;;;0.20;;
44222;SDS011;29895;48.804;9.386;2023-04-02T04:00:10;1.75;;;0.40;;
44222;SDS011;29895;48.804;9.386;2023-04-02T04:02:51;2.40;;;0.40;;
44222;SDS011;29895;48.804;9.386;2023-04-02T04:05:28;2.65;;;0.50;;
44222;SDS011;29895;48.804;9.386;2023-04-02T04:08:11;1.85;;;0.30;;
44222;SDS011;29895;48.804;9.386;2023-04-02T04:10:40;0.95;;;0.20;;
44222;SDS011;29895;48.804;9.386;2023-04-02T04:13:14;1.17;;;0.45;;
44222;SDS011;29895;48.804;9.386;2023-04-02T04:21:04;1.67;;;0.47;;
44222;SDS011;29895;48.804;9.386;2023-04-02T04:23:39;1.85;;;0.60;;
44222;SDS011;29895;48.804;9.386;2023-04-02T04:29:04;0.75;;;0.30;;
44222;SDS011;29895;48.804;9.386;2023-04-02T04:31:49;0.98;;;0.40;;
44222;SDS011;29895;48.804;9.386;2023-04-02T04:34:20;1.98;;;0.30;;
44222;SDS011;29895;48.804;9.386;2023-04-02T04:37:01;3.05;;;0.30;;
44222;SDS011;29895;48.804;9.386;2023-04-02T04:39:41;1.40;;;0.45;;
44222;SDS011;29895;48.804;9.386;2023-04-02T04:42:23;1.35;;;0.47;;
44222;SDS011;29895;48.804;9.386;2023-04-02T04:53:33;1.27;;;0.43;;
44222;SDS011;29895;48.804;9.386;2023-04-02T04:56:15;0.70;;;0.30;;
44222;SDS011;29895;48.804;9.386;2023-04-02T05:01:17;1.65;;;0.50;;
44222;SDS011;29895;48.804;9.386;2023-04-02T05:08:56;2.20;;;0.43;;
44222;SDS011;29895;48.804;9.386;2023-04-02T05:11:29;1.35;;;0.55;;
44222;SDS011;29895;48.804;9.386;2023-04-02T05:14:11;4.22;;;0.85;;
44222;SDS011;29895;48.804;9.386;2023-04-02T05:16:48;3.75;;;0.50;;
44222;SDS011;29895;48.804;9.386;2023-04-02T05:19:24;0.88;;;0.40;;
44222;SDS011;29895;48.804;9.386;2023-04-02T05:21:59;0.63;;;0.50;;
44222;SDS011;29895;48.804;9.386;2023-04-02T05:27:19;1.88;;;0.63;;
44222;SDS011;29895;48.804;9.386;2023-04-02T05:30:02;2.25;;;0.50;;
44222;SDS011;29895;48.804;9.386;2023-04-02T05:32:35;1.85;;;0.60;;
44222;SDS011;29895;48.804;9.386;2023-04-02T05:35:05;2.53;;;0.43;;
44222;SDS011;29895;48.804;9.386;2023-04-02T05:37:31;1.08;;;0.55;;
44222;SDS011;29895;48.804;9.386;2023-04-02T05:39:59;0.90;;;0.52;;
44222;SDS011;29895;48.804;9.386;2023-04-02T05:42:37;0.73;;;0.40;;
44222;SDS011;29895;48.804;9.386;2023-04-02T05:47:53;0.70;;;0.60;;
44222;SDS011;29895;48.804;9.386;2023-04-02T05:52:55;1.50;;;0.70;;
44222;SDS011;29895;48.804;9.386;2023-04-02T05:55:29;2.28;;;0.75;;
44222;SDS011;29895;48.804;9.386;2023-04-02T06:03:49;2.60;;;0.70;;
44222;SDS011;29895;48.804;9.386;2023-04-02T06:05:57;1.23;;;0.50;;
44222;SDS011;29895;48.804;9.386;2023-04-02T06:08:35;1.10;;;0.50;;
44222;SDS011;29895;48.804;9.386;2023-04-02T06:11:19;1.45;;;0.50;;
44222;SDS011;29895;48.804;9.386;2023-04-02T06:13:55;3.65;;;0.70;;
44222;SDS011;29895;48.804;9.386;2023-04-02T06:16:23;2.10;;;0.90;;
44222;SDS011;29895;48.804;9.386;2023-04-02T06:18:51;3.05;;;1.00;;
44222;SDS011;29895;48.804;9.386;2023-04-02T06:21:17;1.98;;;0.80;;
44222;SDS011;29895;48.804;9.386;2023-04-02T06:23:55;1.30;;;0.55;;
44222;SDS011;29895;48.804;9.386;2023-04-02T06:26:40;2.17;;;0.60;;
44222;SDS011;29895;48.804;9.386;2023-04-02T06:29:26;1.92;;;0.73;;
44222;SDS011;29895;48.804;9.386;2023-04-02T06:32:04;2.42;;;1.05;;
44222;SDS011;29895;48.804;9.386;2023-04-02T06:34:32;2.03;;;0.80;;
44222;SDS011;29895;48.804;9.386;2023-04-02T06:37:14;1.45;;;0.85;;
44222;SDS011;29895;48.804;9.386;2023-04-02T06:39:46;4.22;;;1.00;;
44222;SDS011;29895;48.804;9.386;2023-04-02T06:42:13;1.77;;;0.77;;
44222;SDS011;29895;48.804;9.386;2023-04-02T06:44:49;2.67;;;0.90;;
44222;SDS011;29895;48.804;9.386;2023-04-02T06:49:57;2.53;;;0.88;;
44222;SDS011;29895;48.804;9.386;2023-04-02T06:52:50;8.10;;;4.45;;
44222;SDS011;29895;48.804;9.386;2023-04-02T06:55:30;9.40;;;4.72;;
44222;SDS011;29895;48.804;9.386;2023-04-02T06:58:04;4.28;;;2.13;;
44222;SDS011;29895;48.804;9.386;2023-04-02T07:00:43;3.60;;;1.13;;
44222;SDS011;29895;48.804;9.386;2023-04-02T07:03:24;1.30;;;0.85;;
44222;SDS011;29895;48.804;9.386;2023-04-02T07:05:55;4.72;;;2.10;;
44222;SDS011;29895;48.804;9.386;2023-04-02T07:08:21;6.38;;;1.70;;
44222;SDS011;29895;48.804;9.386;2023-04-02T07:10:47;2.97;;;1.50;;
44222;SDS011;29895;48.804;9.386;2023-04-02T07:13:14;2.35;;;0.70;;
44222;SDS011;29895;48.804;9.386;2023-04-02T07:15:46;3.75;;;0.98;;
44222;SDS011;29895;48.804;9.386;2023-04-02T07:20:47;2.85;;;0.70;;
44222;SDS011;29895;48.804;9.386;2023-04-02T07:23:13;2.72;;;1.10;;
44222;SDS011;29895;48.804;9.386;2023-04-02T07:25:38;8.60;;;2.88;;
44222;SDS011;29895;48.804;9.386;2023-04-02T07:28:04;3.53;;;1.10;;
44222;SDS011;29895;48.804;9.386;2023-04-02T07:30:30;5.05;;;1.25;;
44222;SDS011;29895;48.804;9.386;2023-04-02T07:32:55;2.00;;;1.00;;
44222;SDS011;29895;48.804;9.386;2023-04-02T07:35:21;7.45;;;3.55;;
44222;SDS011;29895;48.804;9.386;2023-04-02T07:37:47;5.90;;;3.00;;
44222;SDS011;29895;48.804;9.386;2023-04-02T07:40:17;3.65;;;1.83;;
44222;SDS011;29895;48.804;9.386;2023-04-02T07:42:44;5.13;;;2.17;;
44222;SDS011;29895;48.804;9.386;2023-04-02T07:45:10;3.05;;;1.65;;
44222;SDS011;29895;48.804;9.386;2023-04-02T07:47:36;7.07;;;2.72;;
44222;SDS011;29895;48.804;9.386;2023-04-02T07:50:02;8.07;;;3.05;;
44222;SDS011;29895;48.804;9.386;2023-04-02T07:52:28;12.25;;;4.75;;
44222;SDS011;29895;48.804;9.386;2023-04-02T07:54:55;10.48;;;4.13;;
44222;SDS011;29895;48.804;9.386;2023-04-02T07:57:21;9.25;;;3.10;;
44222;SDS011;29895;48.804;9.386;2023-04-02T07:59:46;4.03;;;1.40;;
44222;SDS011;29895;48.804;9.386;2023-04-02T08:02:18;4.88;;;1.70;;
44222;SDS011;29895;48.804;9.386;2023-04-02T08:04:46;2.60;;;2.13;;
44222;SDS011;29895;48.804;9.386;2023-04-02T08:07:12;3.22;;;1.10;;
44222;SDS011;29895;48.804;9.386;2023-04-02T08:09:38;1.80;;;0.98;;
44222;SDS011;29895;48.804;9.386;2023-04-02T08:12:04;7.82;;;3.03;;
44222;SDS011;29895;48.804;9.386;2023-04-02T08:14:30;4.57;;;1.48;;
44222;SDS011;29895;48.804;9.386;2023-04-02T08:16:55;4.63;;;1.48;;
44222;SDS011;29895;48.804;9.386;2023-04-02T08:19:21;3.75;;;1.70;;
44222;SDS011;29895;48.804;9.386;2023-04-02T08:21:47;5.18;;;1.52;;
44222;SDS011;29895;48.804;9.386;2023-04-02T08:24:15;2.63;;;0.90;;
44222;SDS011;29895;48.804;9.386;2023-04-02T08:26:45;1.80;;;0.75;;
44222;SDS011;29895;48.804;9.386;2023-04-02T08:29:12;1.88;;;0.90;;
44222;SDS011;29895;48.804;9.386;2023-04-02T08:31:37;2.40;;;1.10;;
44222;SDS011;29895;48.804;9.386;2023-04-02T08:34:03;1.92;;;0.80;;
44222;SDS011;29895;48.804;9.386;2023-04-02T08:36:29;1.13;;;0.73;;
44222;SDS011;29895;48.804;9.386;2023-04-02T08:38:58;2.72;;;0.70;;
44222;SDS011;29895;48.804;9.386;2023-04-02T08:41:25;1.05;;;0.70;;
44222;SDS011;29895;48.804;9.386;2023-04-02T08:43:58;1.13;;;0.70;;
44222;SDS011;29895;48.804;9.386;2023-04-02T08:49:12;1.95;;;0.60;;
44222;SDS011;29895;48.804;9.386;2023-04-02T08:51:40;0.98;;;0.50;;
44222;SDS011;29895;48.804;9.386;2023-04-02T08:54:11;1.90;;;0.40;;
44222;SDS011;29895;48.804;9.386;2023-04-02T08:59:42;1.55;;;0.40;;
44222;SDS011;29895;48.804;9.386;2023-04-02T09:04:37;1.60;;;0.60;;
44222;SDS011;29895;48.804;9.386;2023-04-02T09:07:04;1.17;;;0.60;;
44222;SDS011;29895;48.804;9.386;2023-04-02T09:09:31;2.22;;;0.63;;
44222;SDS011;29895;48.804;9.386;2023-04-02T09:12:01;1.92;;;0.80;;
44222;SDS011;29895;48.804;9.386;2023-04-02T09:16:54;1.55;;;0.77;;
44222;SDS011;29895;48.804;9.386;2023-04-02T09:19:39;1.13;;;0.60;;
44222;SDS011;29895;48.804;9.386;2023-04-02T09:24:55;1.60;;;0.60;;
44222;SDS011;29895;48.804;9.386;2023-04-02T09:27:26;2.72;;;0.70;;
44222;SDS011;29895;48.804;9.386;2023-04-02T09:37:47;1.45;;;0.60;;
44222;SDS011;29895;48.804;9.386;2023-04-02T09:41:18;1.73;;;0.90;;
44222;SDS011;29895;48.804;9.386;2023-04-02T09:43:20;3.28;;;1.17;;
44222;SDS011;29895;48.804;9.386;2023-04-02T09:46:14;1.52;;;0.75;;
44222;SDS011;29895;48.804;9.386;2023-04-02T09:48:51;3.03;;;0.90;;
44222;SDS011;29895;48.804;9.386;2023-04-02T09:51:23;2.00;;;0.50;;
44222;SDS011;29895;48.804;9.386;2023-04-02T09:56:29;1.27;;;0.70;;
44222;SDS011;29895;48.804;9.386;2023-04-02T09:59:05;1.63;;;0.90;;
44222;SDS011;29895;48.804;9.386;2023-04-02T10:06:56;1.45;;;0.80;;
44222;SDS011;29895;48.804;9.386;2023-04-02T10:09:32;1.45;;;0.70;;
44222;SDS011;29895;48.804;9.386;2023-04-02T10:12:03;2.67;;;0.63;;
44222;SDS011;29895;48.804;9.386;2023-04-02T10:14:36;1.48;;;0.73;;
44222;SDS011;29895;48.804;9.386;2023-04-02T10:17:10;1.65;;;0.73;;
44222;SDS011;29895;48.804;9.386;2023-04-02T10:19:51;2.85;;;0.85;;
44222;SDS011;29895;48.804;9.386;2023-04-02T10:22:20;1.23;;;0.47;;
44222;SDS011;29895;48.804;9.386;2023-04-02T10:24:47;2.67;;;0.80;;
44222;SDS011;29895;48.804;9.386;2023-04-02T10:27:20;2.78;;;0.70;;
44222;SDS011;29895;48.804;9.386;2023-04-02T10:32:58;1.55;;;0.50;;
44222;SDS011;29895;48.804;9.386;2023-04-02T10:46:21;3.08;;;0.60;;
44222;SDS011;29895;48.804;9.386;2023-04-02T10:51:42;3.42;;;0.82;;
44222;SDS011;29895;48.804;9.386;2023-04-02T10:56:56;1.88;;;0.75;;
44222;SDS011;29895;48.804;9.386;2023-04-02T10:59:27;2.50;;;0.80;;
44222;SDS011;29895;48.804;9.386;2023-04-02T11:01:58;1.55;;;0.80;;
44222;SDS011;29895;48.804;9.386;2023-04-02T11:04:30;0.90;;;0.68;;
44222;SDS011;29895;48.804;9.386;2023-04-02T11:07:19;2.05;;;0.60;;
44222;SDS011;29895;48.804;9.386;2023-04-02T11:09:49;1.63;;;0.63;;
44222;SDS011;29895;48.804;9.386;2023-04-02T11:12:21;1.58;;;0.60;;
44222;SDS011;29895;48.804;9.386;2023-04-02T11:14:48;1.90;;;1.00;;
44222;SDS011;29895;48.804;9.386;2023-04-02T11:17:17;3.35;;;0.77;;
44222;SDS011;29895;48.804;9.386;2023-04-02T11:19:44;0.88;;;0.65;;
44222;SDS011;29895;48.804;9.386;2023-04-02T11:22:17;4.47;;;0.98;;
44222;SDS011;29895;48.804;9.386;2023-04-02T11:24:51;3.15;;;0.98;;
44222;SDS011;29895;48.804;9.386;2023-04-02T11:37:34;1.05;;;0.50;;
44222;SDS011;29895;48.804;9.386;2023-04-02T11:42:38;0.43;;;0.30;;
44222;SDS011;29895;48.804;9.386;2023-04-02T11:50:35;0.52;;;0.32;;
44222;SDS011;29895;48.804;9.386;2023-04-02T11:55:42;0.80;;;0.50;;
44222;SDS011;29895;48.804;9.386;2023-04-02T12:09:22;0.80;;;0.50;;
44222;SDS011;29895;48.804;9.386;2023-04-02T12:11:51;0.52;;;0.45;;
44222;SDS011;29895;48.804;9.386;2023-04-02T12:17:04;0.95;;;0.40;;
44222;SDS011;29895;48.804;9.386;2023-04-02T12:19:50;2.15;;;0.57;;
44222;SDS011;29895;48.804;9.386;2023-04-02T12:22:18;2.65;;;1.55;;
44222;SDS011;29895;48.804;9.386;2023-04-02T12:24:47;2.78;;;1.25;;
44222;SDS011;29895;48.804;9.386;2023-04-02T12:27:17;2.70;;;0.70;;
44222;SDS011;29895;48.804;9.386;2023-04-02T12:29:46;1.20;;;0.43;;
44222;SDS011;29895;48.804;9.386;2023-04-02T12:32:18;0.93;;;0.60;;
44222;SDS011;29895;48.804;9.386;2023-04-02T12:34:55;1.20;;;0.50;;
44222;SDS011;29895;48.804;9.386;2023-04-02T12:37:26;1.50;;;0.60;;
44222;SDS011;29895;48.804;9.386;2023-04-02T12:39:53;1.08;;;0.63;;
44222;SDS011;29895;48.804;9.386;2023-04-02T12:42:31;1.05;;;0.75;;
44222;SDS011;29895;48.804;9.386;2023-04-02T12:44:58;1.05;;;0.50;;
44222;SDS011;29895;48.804;9.386;2023-04-02T12:47:25;1.58;;;0.80;;
44222;SDS011;29895;48.804;9.386;2023-04-02T12:49:51;1.20;;;0.60;;
44222;SDS011;29895;48.804;9.386;2023-04-02T12:52:19;1.00;;;0.50;;
44222;SDS011;29895;48.804;9.386;2023-04-02T12:55:02;3.15;;;0.70;;
44222;SDS011;29895;48.804;9.386;2023-04-02T12:59:55;0.63;;;0.50;;
44222;SDS011;29895;48.804;9.386;2023-04-02T13:02:23;0.63;;;0.50;;
44222;SDS011;29895;48.804;9.386;2023-04-02T13:04:51;0.85;;;0.55;;
44222;SDS011;29895;48.804;9.386;2023-04-02T13:07:19;0.93;;;0.68;;
44222;SDS011;29895;48.804;9.386;2023-04-02T13:09:50;0.90;;;0.60;;
44222;SDS011;29895;48.804;9.386;2023-04-02T13:14:54;0.90;;;0.68;;
44222;SDS011;29895;48.804;9.386;2023-04-02T13:20:28;1.30;;;1.00;;
44222;SDS011;29895;48.804;9.386;2023-04-02T13:22:54;2.20;;;1.13;;
44222;SDS011;29895;48.804;9.386;2023-04-02T13:25:22;1.80;;;1.20;;
44222;SDS011;29895;48.804;9.386;2023-04-02T13:27:56;1.67;;;0.80;;
44222;SDS011;29895;48.804;9.386;2023-04-02T13:30:23;1.25;;;0.50;;
44222;SDS011;29895;48.804;9.386;2023-04-02T13:32:51;1.90;;;1.17;;
44222;SDS011;29895;48.804;9.386;2023-04-02T13:35:16;1.05;;;0.68;;
44222;SDS011;29895;48.804;9.386;2023-04-02T13:37:42;1.27;;;0.70;;
44222;SDS011;29895;48.804;9.386;2023-04-02T13:40:11;0.73;;;0.68;;
44222;SDS011;29895;48.804;9.386;2023-04-02T13:42:41;2.35;;;0.88;;
44222;SDS011;29895;48.804;9.386;2023-04-02T13:47:46;1.23;;;1.00;;
44222;SDS011;29895;48.804;9.386;2023-04-02T13:50:15;1.88;;;1.40;;
44222;SDS011;29895;48.804;9.386;2023-04-02T13:52:42;1.83;;;0.80;;
44222;SDS011;29895;48.804;9.386;2023-04-02T13:55:08;2.60;;;0.80;;
44222;SDS011;29895;48.804;9.386;2023-04-02T13:57:35;0.80;;;0.80;;
44222;SDS011;29895;48.804;9.386;2023-04-02T14:00:02;1.63;;;0.50;;
44222;SDS011;29895;48.804;9.386;2023-04-02T14:02:28;2.35;;;0.63;;
44222;SDS011;29895;48.804;9.386;2023-04-02T14:04:58;0.93;;;0.65;;
44222;SDS011;29895;48.804;9.386;2023-04-02T14:07:45;1.05;;;0.60;;
44222;SDS011;29895;48.804;9.386;2023-04-02T14:12:45;1.30;;;0.55;;
44222;SDS011;29895;48.804;9.386;2023-04-02T14:15:50;1.63;;;1.33;;
44222;SDS011;29895;48.804;9.386;2023-04-02T14:21:02;1.40;;;0.90;;
44222;SDS011;29895;48.804;9.386;2023-04-02T14:23:46;1.70;;;1.20;;
44222;SDS011;29895;48.804;9.386;2023-04-02T14:26:31;1.23;;;0.85;;
44222;SDS011;29895;48.804;9.386;2023-04-02T14:29:08;2.47;;;1.10;;
44222;SDS011;29895;48.804;9.386;2023-04-02T14:34:32;1.00;;;0.70;;
44222;SDS011;29895;48.804;9.386;2023-04-02T14:42:32;1.05;;;0.95;;
44222;SDS011;29895;48.804;9.386;2023-04-02T14:47:46;1.38;;;0.90;;
44222;SDS011;29895;48.804;9.386;2023-04-02T14:50:19;1.55;;;0.90;;
44222;SDS011;29895;48.804;9.386;2023-04-02T14:52:52;2.40;;;1.10;;
44222;SDS011;29895;48.804;9.386;2023-04-02T14:55:31;2.65;;;1.00;;
44222;SDS011;29895;48.804;9.386;2023-04-02T14:58:02;2.30;;;0.93;;
44222;SDS011;29895;48.804;9.386;2023-04-02T15:00:40;1.52;;;1.10;;
44222;SDS011;29895;48.804;9.386;2023-04-02T15:03:31;2.80;;;1.20;;
44222;SDS011;29895;48.804;9.386;2023-04-02T15:06:17;3.15;;;1.40;;
44222;SDS011;29895;48.804;9.386;2023-04-02T15:09:14;2.10;;;1.30;;
44222;SDS011;29895;48.804;9.386;2023-04-02T15:12:14;2.47;;;1.20;;
44222;SDS011;29895;48.804;9.386;2023-04-02T15:14:53;3.38;;;1.88;;
44222;SDS011;29895;48.804;9.386;2023-04-02T15:17:28;3.20;;;2.03;;
44222;SDS011;29895;48.804;9.386;2023-04-02T15:19:57;4.28;;;2.22;;
44222;SDS011;29895;48.804;9.386;2023-04-02T15:22:56;4.63;;;1.60;;
44222;SDS011;29895;48.804;9.386;2023-04-02T15:25:59;2.38;;;1.70;;
44222;SDS011;29895;48.804;9.386;2023-04-02T15:28:36;4.75;;;1.88;;
44222;SDS011;29895;48.804;9.386;2023-04-02T15:31:19;3.70;;;2.35;;
44222;SDS011;29895;48.804;9.386;2023-04-02T15:34:23;3.33;;;2.08;;
44222;SDS011;29895;48.804;9.386;2023-04-02T15:36:57;5.70;;;2.60;;
44222;SDS011;29895;48.804;9.386;2023-04-02T15:39:29;3.50;;;2.03;;
44222;SDS011;29895;48.804;9.386;2023-04-02T15:42:13;4.00;;;2.20;;
44222;SDS011;29895;48.804;9.386;2023-04-02T15:48:16;2.28;;;1.60;;
44222;SDS011;29895;48.804;9.386;2023-04-02T15:52:59;7.38;;;2.50;;
44222;SDS011;29895;48.804;9.386;2023-04-02T15:58:59;3.55;;;1.73;;
44222;SDS011;29895;48.804;9.386;2023-04-02T16:09:58;4.00;;;2.83;;
44222;SDS011;29895;48.804;9.386;2023-04-02T16:15:16;4.38;;;1.63;;
44222;SDS011;29895;48.804;9.386;2023-04-02T16:17:49;2.83;;;1.90;;
44222;SDS011;29895;48.804;9.386;2023-04-02T16:20:29;2.20;;;1.77;;
44222;SDS011;29895;48.804;9.386;2023-04-02T16:23:02;4.00;;;1.50;;
44222;SDS011;29895;48.804;9.386;2023-04-02T16:25:40;1.70;;;1.40;;
44222;SDS011;29895;48.804;9.386;2023-04-02T16:28:26;2.75;;;1.48;;
44222;SDS011;29895;48.804;9.386;2023-04-02T16:44:59;2.08;;;1.65;;
44222;SDS011;29895;48.804;9.386;2023-04-02T16:50:43;3.60;;;2.00;;
44222;SDS011;29895;48.804;9.386;2023-04-02T16:53:37;2.20;;;1.50;;
44222;SDS011;29895;48.804;9.386;2023-04-02T16:59:39;2.95;;;1.20;;
44222;SDS011;29895;48.804;9.386;2023-04-02T17:05:12;3.05;;;1.85;;
44222;SDS011;29895;48.804;9.386;2023-04-02T17:08:14;1.95;;;1.70;;
44222;SDS011;29895;48.804;9.386;2023-04-02T17:11:05;1.50;;;1.25;;
44222;SDS011;29895;48.804;9.386;2023-04-02T17:18:30;3.70;;;2.15;;
44222;SDS011;29895;48.804;9.386;2023-04-02T17:20:59;3.95;;;1.92;;
44222;SDS011;29895;48.804;9.386;2023-04-02T17:23:28;2.53;;;2.33;;
44222;SDS011;29895;48.804;9.386;2023-04-02T17:25:57;4.50;;;1.90;;
44222;SDS011;29895;48.804;9.386;2023-04-02T17:28:31;3.63;;;2.30;;
44222;SDS011;29895;48.804;9.386;2023-04-02T17:31:09;3.90;;;2.83;;
44222;SDS011;29895;48.804;9.386;2023-04-02T17:33:40;4.47;;;3.17;;
44222;SDS011;29895;48.804;9.386;2023-04-02T17:36:19;5.95;;;2.92;;
44222;SDS011;29895;48.804;9.386;2023-04-02T17:39:10;6.00;;;2.67;;
44222;SDS011;29895;48.804;9.386;2023-04-02T17:44:49;4.63;;;3.00;;
44222;SDS011;29895;48.804;9.386;2023-04-02T17:55:45;12.57;;;2.58;;
44222;SDS011;29895;48.804;9.386;2023-04-02T18:06:38;3.53;;;2.83;;
44222;SDS011;29895;48.804;9.386;2023-04-02T18:11:53;4.97;;;2.60;;
44222;SDS011;29895;48.804;9.386;2023-04-02T18:14:56;6.38;;;2.90;;
44222;SDS011;29895;48.804;9.386;2023-04-02T18:17:34;6.25;;;3.35;;
44222;SDS011;29895;48.804;9.386;2023-04-02T18:23:32;5.85;;;3.00;;
44222;SDS011;29895;48.804;9.386;2023-04-02T18:40:20;5.20;;;3.92;;
44222;SDS011;29895;48.804;9.386;2023-04-02T18:42:59;6.60;;;3.83;;
44222;SDS011;29895;48.804;9.386;2023-04-02T18:45:48;5.00;;;3.35;;
44222;SDS011;29895;48.804;9.386;2023-04-02T18:48:38;5.68;;;3.25;;
44222;SDS011;29895;48.804;9.386;2023-04-02T18:51:13;8.95;;;4.35;;
44222;SDS011;29895;48.804;9.386;2023-04-02T18:53:45;10.70;;;5.25;;
44222;SDS011;29895;48.804;9.386;2023-04-02T18:56:14;10.30;;;4.10;;
44222;SDS011;29895;48.804;9.386;2023-04-02T19:01:43;5.68;;;3.78;;
44222;SDS011;29895;48.804;9.386;2023-04-02T19:04:14;5.90;;;3.45;;
44222;SDS011;29895;48.804;9.386;2023-04-02T19:06:48;6.10;;;3.08;;
44222;SDS011;29895;48.804;9.386;2023-04-02T19:09:26;4.65;;;2.70;;
44222;SDS011;29895;48.804;9.386;2023-04-02T19:11:56;5.88;;;3.03;;
44222;SDS011;29895;48.804;9.386;2023-04-02T19:14:22;6.50;;;3.30;;
44222;SDS011;29895;48.804;9.386;2023-04-02T19:19:28;7.22;;;3.53;;
44222;SDS011;29895;48.804;9.386;2023-04-02T19:24:54;5.50;;;3.13;;
44222;SDS011;29895;48.804;9.386;2023-04-02T19:38:31;3.95;;;2.60;;
44222;SDS011;29895;48.804;9.386;2023-04-02T19:41:17;7.22;;;2.70;;
44222;SDS011;29895;48.804;9.386;2023-04-02T19:43:55;4.22;;;2.55;;
44222;SDS011;29895;48.804;9.386;2023-04-02T19:46:22;6.32;;;2.90;;
44222;SDS011;29895;48.804;9.386;2023-04-02T19:48:51;5.85;;;2.75;;
44222;SDS011;29895;48.804;9.386;2023-04-02T19:51:29;10.45;;;3.33;;
44222;SDS011;29895;48.804;9.386;2023-04-02T19:53:55;5.78;;;3.08;;
44222;SDS011;29895;48.804;9.386;2023-04-02T19:56:20;5.90;;;3.03;;
44222;SDS011;29895;48.804;9.386;2023-04-02T19:58:46;4.47;;;2.83;;
44222;SDS011;29895;48.804;9.386;2023-04-02T20:01:12;6.93;;;3.17;;
44222;SDS011;29895;48.804;9.386;2023-04-02T20:03:38;5.07;;;2.67;;
44222;SDS011;29895;48.804;9.386;2023-04-02T20:06:04;5.93;;;2.92;;
44222;SDS011;29895;48.804;9.386;2023-04-02T20:08:30;4.05;;;2.30;;
44222;SDS011;29895;48.804;9.386;2023-04-02T20:10:56;8.40;;;3.10;;
44222;SDS011;29895;48.804;9.386;2023-04-02T20:13:24;7.90;;;2.90;;
44222;SDS011;29895;48.804;9.386;2023-04-02T20:15:50;7.25;;;3.05;;
44222;SDS011;29895;48.804;9.386;2023-04-02T20:18:16;6.88;;;3.00;;
44222;SDS011;29895;48.804;9.386;2023-04-02T20:20:45;6.53;;;3.22;;
44222;SDS011;29895;48.804;9.386;2023-04-02T20:23:12;4.88;;;2.90;;
44222;SDS011;29895;48.804;9.386;2023-04-02T20:25:42;5.38;;;2.58;;
44222;SDS011;29895;48.804;9.386;2023-04-02T20:28:16;10.02;;;3.22;;
44222;SDS011;29895;48.804;9.386;2023-04-02T20:30:42;8.57;;;2.97;;
44222;SDS011;29895;48.804;9.386;2023-04-02T20:33:08;9.63;;;3.28;;
44222;SDS011;29895;48.804;9.386;2023-04-02T20:35:34;5.30;;;2.90;;
44222;SDS011;29895;48.804;9.386;2023-04-02T20:38:01;6.15;;;3.10;;
44222;SDS011;29895;48.804;9.386;2023-04-02T20:40:30;7.57;;;3.70;;
44222;SDS011;29895;48.804;9.386;2023-04-02T20:42:56;5.28;;;2.60;;